createdAt,value
2023-05-07T00:00:17.967Z,0
2023-05-07T00:01:20.119Z,0
2023-05-07T00:02:20.226Z,0
2023-05-07T00:03:20.880Z,0
2023-05-07T00:04:21.538Z,0
2023-05-07T00:05:22.158Z,0
2023-05-07T00:06:22.749Z,0
2023-05-07T00:07:23.345Z,0
2023-05-07T00:08:23.963Z,0
2023-05-07T00:09:24.567Z,0
2023-05-07T00:10:25.156Z,0
2023-05-07T00:11:25.750Z,0
2023-05-07T00:12:26.352Z,0
2023-05-07T00:13:26.979Z,0
2023-05-07T00:14:27.569Z,0
2023-05-07T00:15:28.176Z,0
2023-05-07T00:16:28.828Z,0
2023-05-07T00:17:29.453Z,0
2023-05-07T00:18:30.020Z,0
2023-05-07T00:19:30.605Z,0
2023-05-07T00:20:31.211Z,0
2023-05-07T00:21:31.811Z,0
2023-05-07T00:22:32.420Z,0
2023-05-07T00:23:33.049Z,0
2023-05-07T00:24:33.636Z,0
2023-05-07T00:25:34.234Z,0
2023-05-07T00:26:34.828Z,0
2023-05-07T00:27:35.427Z,0
2023-05-07T00:28:36.025Z,0
2023-05-07T00:29:36.619Z,0
2023-05-07T00:30:37.346Z,0
2023-05-07T00:31:37.924Z,0
2023-05-07T00:32:38.516Z,0
2023-05-07T00:33:39.116Z,0
2023-05-07T00:34:39.711Z,0
2023-05-07T00:35:40.314Z,0
2023-05-07T00:36:40.915Z,0
2023-05-07T00:37:41.523Z,0
2023-05-07T00:38:42.103Z,0
2023-05-07T00:39:42.702Z,0
2023-05-07T00:40:43.312Z,0
2023-05-07T00:41:43.895Z,0
2023-05-07T00:42:44.493Z,0
2023-05-07T00:43:45.087Z,0
2023-05-07T00:44:45.687Z,0
2023-05-07T00:45:46.354Z,0
2023-05-07T00:46:46.898Z,0
2023-05-07T00:47:47.550Z,0
2023-05-07T00:48:48.130Z,0
2023-05-07T00:49:48.726Z,0
2023-05-07T00:50:49.360Z,0
2023-05-07T00:51:49.918Z,0
2023-05-07T00:52:50.517Z,0
2023-05-07T00:53:51.117Z,0
2023-05-07T00:54:51.739Z,0
2023-05-07T00:55:52.328Z,0
2023-05-07T00:56:52.921Z,0
2023-05-07T00:57:53.542Z,0
2023-05-07T00:58:54.198Z,0
2023-05-07T00:59:54.796Z,0
2023-05-07T01:00:55.541Z,0
2023-05-07T01:01:56.036Z,0
2023-05-07T01:02:56.689Z,0
2023-05-07T01:03:57.787Z,0
2023-05-07T01:04:58.724Z,0
2023-05-07T01:05:59.768Z,0
2023-05-07T01:07:00.404Z,0
2023-05-07T01:08:00.997Z,0
2023-05-07T01:09:01.632Z,0
2023-05-07T01:10:02.237Z,0
2023-05-07T01:11:02.844Z,0
2023-05-07T01:12:03.436Z,0
2023-05-07T01:13:04.054Z,0
2023-05-07T01:14:04.625Z,0
2023-05-07T01:15:05.219Z,0
2023-05-07T01:16:05.822Z,0
2023-05-07T01:17:06.489Z,0
2023-05-07T01:18:07.070Z,0
2023-05-07T01:19:07.670Z,0
2023-05-07T01:20:08.336Z,0
2023-05-07T01:21:08.877Z,0
2023-05-07T01:22:09.470Z,0
2023-05-07T01:23:10.093Z,0
2023-05-07T01:24:10.694Z,0
2023-05-07T01:25:11.313Z,0
2023-05-07T01:26:11.924Z,0
2023-05-07T01:27:12.518Z,0
2023-05-07T01:28:13.115Z,0
2023-05-07T01:29:13.743Z,0
2023-05-07T01:30:14.428Z,0
2023-05-07T01:31:15.179Z,0
2023-05-07T01:32:15.626Z,0
2023-05-07T01:33:16.246Z,0
2023-05-07T01:34:16.836Z,0
2023-05-07T01:35:17.434Z,0
2023-05-07T01:36:18.033Z,0
2023-05-07T01:37:18.627Z,0
2023-05-07T01:38:19.230Z,0
2023-05-07T01:39:19.821Z,0
2023-05-07T01:40:20.414Z,0
2023-05-07T01:41:21.025Z,0
2023-05-07T01:42:21.608Z,0
2023-05-07T01:43:22.201Z,0
2023-05-07T01:44:22.797Z,0
2023-05-07T01:45:23.393Z,0
2023-05-07T01:46:24.084Z,0
2023-05-07T01:47:24.638Z,0
2023-05-07T01:48:25.191Z,0
2023-05-07T01:49:25.789Z,0
2023-05-07T01:50:26.396Z,0
2023-05-07T01:51:26.980Z,0
2023-05-07T01:52:27.580Z,0
2023-05-07T01:53:28.191Z,0
2023-05-07T01:54:28.790Z,0
2023-05-07T01:55:29.408Z,0
2023-05-07T01:56:30.005Z,0
2023-05-07T01:57:30.599Z,0
2023-05-07T01:58:31.197Z,0
2023-05-07T01:59:31.821Z,0
2023-05-07T02:00:32.391Z,0
2023-05-07T02:01:33.097Z,0
2023-05-07T02:02:33.707Z,0
2023-05-07T02:03:34.438Z,0
2023-05-07T02:04:35.093Z,0
2023-05-07T02:05:35.697Z,0
2023-05-07T02:06:36.310Z,0
2023-05-07T02:07:36.919Z,0
2023-05-07T02:08:37.509Z,0
2023-05-07T02:09:38.104Z,0
2023-05-07T02:10:38.696Z,0
2023-05-07T02:11:39.296Z,0
2023-05-07T02:12:39.923Z,0
2023-05-07T02:13:40.492Z,0
2023-05-07T02:14:41.110Z,0
2023-05-07T02:15:41.723Z,0
2023-05-07T02:16:42.441Z,0
2023-05-07T02:17:42.961Z,0
2023-05-07T02:18:43.531Z,0
2023-05-07T02:19:44.123Z,0
2023-05-07T02:20:44.732Z,0
2023-05-07T02:21:45.318Z,0
2023-05-07T02:22:45.919Z,0
2023-05-07T02:23:46.518Z,0
2023-05-07T02:24:47.113Z,0
2023-05-07T02:25:47.717Z,0
2023-05-07T02:26:48.314Z,0
2023-05-07T02:27:48.936Z,0
2023-05-07T02:28:49.529Z,0
2023-05-07T02:29:50.145Z,0
2023-05-07T02:30:50.743Z,0
2023-05-07T02:31:51.383Z,0
2023-05-07T02:32:52.015Z,0
2023-05-07T02:33:52.579Z,0
2023-05-07T02:34:53.174Z,0
2023-05-07T02:35:53.775Z,0
2023-05-07T02:36:54.380Z,0
2023-05-07T02:37:54.972Z,0
2023-05-07T02:38:55.569Z,0
2023-05-07T02:39:56.168Z,0
2023-05-07T02:40:56.763Z,0
2023-05-07T02:41:57.363Z,0
2023-05-07T02:42:57.963Z,0
2023-05-07T02:43:58.573Z,0
2023-05-07T02:44:59.171Z,0
2023-05-07T02:45:59.774Z,0
2023-05-07T02:47:00.414Z,0
2023-05-07T02:48:01.021Z,0
2023-05-07T02:49:01.595Z,0
2023-05-07T02:50:02.183Z,0
2023-05-07T02:51:02.781Z,0
2023-05-07T02:52:03.377Z,0
2023-05-07T02:53:03.992Z,0
2023-05-07T02:54:04.611Z,0
2023-05-07T02:55:05.179Z,0
2023-05-07T02:56:05.787Z,0
2023-05-07T02:57:06.399Z,0
2023-05-07T02:58:06.976Z,0
2023-05-07T02:59:07.591Z,0
2023-05-07T03:00:08.281Z,0
2023-05-07T03:01:08.989Z,0
2023-05-07T03:02:09.598Z,0
2023-05-07T03:03:10.206Z,0
2023-05-07T03:04:10.803Z,0
2023-05-07T03:05:11.377Z,0
2023-05-07T03:06:12.000Z,0
2023-05-07T03:07:12.605Z,0
2023-05-07T03:08:13.224Z,0
2023-05-07T03:09:13.804Z,0
2023-05-07T03:10:14.405Z,0
2023-05-07T03:11:14.998Z,0
2023-05-07T03:12:15.593Z,0
2023-05-07T03:13:16.308Z,0
2023-05-07T03:14:16.909Z,0
2023-05-07T03:15:17.511Z,0
2023-05-07T03:16:18.131Z,0
2023-05-07T03:17:18.726Z,0
2023-05-07T03:18:19.499Z,0
2023-05-07T03:19:20.185Z,0
2023-05-07T03:20:20.826Z,0
2023-05-07T03:21:21.396Z,0
2023-05-07T03:22:21.997Z,0
2023-05-07T03:23:24.690Z,0
2023-05-07T03:24:24.199Z,0
2023-05-07T03:25:24.796Z,0
2023-05-07T03:26:25.396Z,0
2023-05-07T03:27:25.991Z,0
2023-05-07T03:28:26.589Z,0
2023-05-07T03:29:27.189Z,0
2023-05-07T03:30:27.785Z,0
2023-05-07T03:31:28.434Z,0
2023-05-07T03:32:29.068Z,0
2023-05-07T03:33:29.630Z,0
2023-05-07T03:34:30.239Z,5
2023-05-07T03:35:30.850Z,5
2023-05-07T03:36:31.449Z,5
2023-05-07T03:37:32.070Z,5
2023-05-07T03:38:32.666Z,5
2023-05-07T03:39:33.261Z,5
2023-05-07T03:40:33.859Z,11
2023-05-07T03:41:34.458Z,11
2023-05-07T03:42:35.056Z,11
2023-05-07T03:43:35.660Z,11
2023-05-07T03:44:36.256Z,11
2023-05-07T03:45:36.857Z,16
2023-05-07T03:46:37.492Z,16
2023-05-07T03:47:38.104Z,16
2023-05-07T03:48:38.676Z,22
2023-05-07T03:49:39.279Z,22
2023-05-07T03:50:39.896Z,22
2023-05-07T03:51:40.498Z,22
2023-05-07T03:52:41.101Z,22
2023-05-07T03:53:41.696Z,22
2023-05-07T03:54:42.296Z,28
2023-05-07T03:55:42.898Z,28
2023-05-07T03:56:43.501Z,28
2023-05-07T03:57:44.096Z,33
2023-05-07T03:58:44.702Z,33
2023-05-07T03:59:45.300Z,33
2023-05-07T04:00:45.903Z,39
2023-05-07T04:01:46.542Z,39
2023-05-07T04:02:47.327Z,39
2023-05-07T04:03:47.813Z,39
2023-05-07T04:04:48.418Z,45
2023-05-07T04:05:49.502Z,50
2023-05-07T04:06:50.113Z,50
2023-05-07T04:07:50.708Z,56
2023-05-07T04:08:51.306Z,61
2023-05-07T04:09:51.915Z,67
2023-05-07T04:10:52.508Z,67
2023-05-07T04:11:53.108Z,67
2023-05-07T04:12:53.730Z,67
2023-05-07T04:13:54.328Z,73
2023-05-07T04:14:54.913Z,73
2023-05-07T04:15:55.516Z,78
2023-05-07T04:16:56.162Z,78
2023-05-07T04:17:56.779Z,78
2023-05-07T04:18:57.350Z,84
2023-05-07T04:19:57.970Z,90
2023-05-07T04:20:58.569Z,95
2023-05-07T04:21:59.199Z,95
2023-05-07T04:22:59.790Z,95
2023-05-07T04:24:00.391Z,101
2023-05-07T04:25:00.990Z,106
2023-05-07T04:26:01.592Z,106
2023-05-07T04:27:02.193Z,106
2023-05-07T04:28:02.810Z,106
2023-05-07T04:29:03.408Z,106
2023-05-07T04:30:04.020Z,106
2023-05-07T04:31:04.658Z,118
2023-05-07T04:32:05.359Z,112
2023-05-07T04:33:06.083Z,118
2023-05-07T04:34:06.632Z,123
2023-05-07T04:35:07.216Z,129
2023-05-07T04:36:07.919Z,135
2023-05-07T04:37:08.466Z,135
2023-05-07T04:38:09.073Z,135
2023-05-07T04:39:09.696Z,129
2023-05-07T04:40:10.495Z,123
2023-05-07T04:41:11.224Z,112
2023-05-07T04:42:11.826Z,112
2023-05-07T04:43:12.428Z,123
2023-05-07T04:44:13.031Z,123
2023-05-07T04:45:13.630Z,129
2023-05-07T04:46:14.283Z,129
2023-05-07T04:47:14.918Z,123
2023-05-07T04:48:15.506Z,118
2023-05-07T04:49:16.114Z,118
2023-05-07T04:50:16.707Z,118
2023-05-07T04:51:17.312Z,118
2023-05-07T04:52:17.915Z,118
2023-05-07T04:53:18.516Z,118
2023-05-07T04:54:19.116Z,118
2023-05-07T04:55:19.717Z,118
2023-05-07T04:56:20.320Z,112
2023-05-07T04:57:20.923Z,106
2023-05-07T04:58:21.526Z,101
2023-05-07T04:59:22.127Z,101
2023-05-07T05:00:22.726Z,101
2023-05-07T05:01:23.396Z,101
2023-05-07T05:02:24.018Z,106
2023-05-07T05:03:24.619Z,112
2023-05-07T05:04:25.257Z,123
2023-05-07T05:05:25.863Z,135
2023-05-07T05:06:26.462Z,146
2023-05-07T05:07:27.082Z,151
2023-05-07T05:08:27.698Z,157
2023-05-07T05:09:28.307Z,157
2023-05-07T05:10:28.916Z,163
2023-05-07T05:11:29.530Z,168
2023-05-07T05:12:30.135Z,163
2023-05-07T05:13:30.738Z,174
2023-05-07T05:14:31.356Z,180
2023-05-07T05:15:33.736Z,185
2023-05-07T05:16:33.685Z,191
2023-05-07T05:17:34.314Z,202
2023-05-07T05:18:34.942Z,191
2023-05-07T05:19:35.522Z,180
2023-05-07T05:20:36.131Z,202
2023-05-07T05:21:36.725Z,213
2023-05-07T05:22:37.328Z,225
2023-05-07T05:23:37.995Z,241
2023-05-07T05:24:38.617Z,253
2023-05-07T05:25:39.237Z,264
2023-05-07T05:26:39.837Z,286
2023-05-07T05:27:40.448Z,292
2023-05-07T05:28:41.040Z,292
2023-05-07T05:29:41.643Z,292
2023-05-07T05:30:42.248Z,309
2023-05-07T05:31:42.955Z,292
2023-05-07T05:32:43.637Z,303
2023-05-07T05:33:44.307Z,292
2023-05-07T05:34:44.883Z,270
2023-05-07T05:35:45.479Z,258
2023-05-07T05:36:46.165Z,270
2023-05-07T05:37:46.711Z,264
2023-05-07T05:38:47.333Z,270
2023-05-07T05:39:47.933Z,264
2023-05-07T05:40:48.568Z,264
2023-05-07T05:41:49.173Z,270
2023-05-07T05:42:49.798Z,264
2023-05-07T05:43:50.395Z,281
2023-05-07T05:44:51.001Z,315
2023-05-07T05:45:51.608Z,326
2023-05-07T05:46:52.219Z,326
2023-05-07T05:47:52.910Z,343
2023-05-07T05:48:53.573Z,360
2023-05-07T05:49:54.092Z,371
2023-05-07T05:50:54.684Z,388
2023-05-07T05:51:55.287Z,393
2023-05-07T05:52:55.893Z,444
2023-05-07T05:53:56.518Z,410
2023-05-07T05:54:57.118Z,405
2023-05-07T05:55:57.734Z,405
2023-05-07T05:56:58.326Z,416
2023-05-07T05:57:58.949Z,410
2023-05-07T05:58:59.613Z,410
2023-05-07T06:00:00.283Z,410
2023-05-07T06:01:00.845Z,399
2023-05-07T06:02:01.507Z,388
2023-05-07T06:03:02.170Z,371
2023-05-07T06:04:02.731Z,337
2023-05-07T06:05:03.371Z,320
2023-05-07T06:06:03.950Z,320
2023-05-07T06:07:04.548Z,331
2023-05-07T06:08:05.155Z,343
2023-05-07T06:09:05.759Z,348
2023-05-07T06:10:06.371Z,337
2023-05-07T06:11:06.977Z,337
2023-05-07T06:12:07.581Z,337
2023-05-07T06:13:08.238Z,371
2023-05-07T06:14:08.788Z,382
2023-05-07T06:15:09.419Z,331
2023-05-07T06:16:10.070Z,348
2023-05-07T06:17:10.637Z,343
2023-05-07T06:18:11.291Z,337
2023-05-07T06:19:11.904Z,354
2023-05-07T06:20:12.654Z,399
2023-05-07T06:21:13.446Z,399
2023-05-07T06:22:14.068Z,382
2023-05-07T06:23:15.859Z,388
2023-05-07T06:24:15.285Z,371
2023-05-07T06:25:15.885Z,388
2023-05-07T06:26:16.489Z,382
2023-05-07T06:27:17.117Z,416
2023-05-07T06:28:17.716Z,399
2023-05-07T06:29:18.320Z,405
2023-05-07T06:30:18.924Z,376
2023-05-07T06:31:19.528Z,399
2023-05-07T06:32:20.129Z,405
2023-05-07T06:33:20.790Z,399
2023-05-07T06:34:21.406Z,410
2023-05-07T06:35:21.984Z,376
2023-05-07T06:36:22.582Z,371
2023-05-07T06:37:23.201Z,331
2023-05-07T06:38:23.811Z,365
2023-05-07T06:39:24.433Z,343
2023-05-07T06:40:25.031Z,360
2023-05-07T06:41:25.638Z,405
2023-05-07T06:42:26.237Z,405
2023-05-07T06:43:26.840Z,421
2023-05-07T06:44:27.441Z,427
2023-05-07T06:45:28.069Z,421
2023-05-07T06:46:28.698Z,416
2023-05-07T06:47:29.300Z,427
2023-05-07T06:48:29.899Z,416
2023-05-07T06:49:30.642Z,427
2023-05-07T06:50:31.161Z,421
2023-05-07T06:51:31.778Z,416
2023-05-07T06:52:32.381Z,410
2023-05-07T06:53:33.000Z,382
2023-05-07T06:54:33.584Z,410
2023-05-07T06:55:34.181Z,433
2023-05-07T06:56:34.815Z,455
2023-05-07T06:57:35.410Z,483
2023-05-07T06:58:36.018Z,511
2023-05-07T06:59:36.615Z,466
2023-05-07T07:00:37.219Z,483
2023-05-07T07:01:37.920Z,500
2023-05-07T07:02:38.564Z,500
2023-05-07T07:03:39.198Z,489
2023-05-07T07:04:40.048Z,478
2023-05-07T07:05:40.694Z,500
2023-05-07T07:06:41.298Z,489
2023-05-07T07:07:41.927Z,478
2023-05-07T07:08:42.539Z,472
2023-05-07T07:09:43.129Z,478
2023-05-07T07:10:43.741Z,483
2023-05-07T07:11:44.340Z,500
2023-05-07T07:12:44.964Z,511
2023-05-07T07:13:45.546Z,511
2023-05-07T07:14:46.144Z,506
2023-05-07T07:15:46.807Z,500
2023-05-07T07:16:47.370Z,489
2023-05-07T07:17:48.037Z,472
2023-05-07T07:18:48.588Z,472
2023-05-07T07:19:49.295Z,483
2023-05-07T07:20:49.821Z,472
2023-05-07T07:21:50.418Z,489
2023-05-07T07:22:51.024Z,500
2023-05-07T07:23:51.645Z,523
2023-05-07T07:24:52.249Z,540
2023-05-07T07:25:52.849Z,545
2023-05-07T07:26:53.453Z,551
2023-05-07T07:27:54.056Z,551
2023-05-07T07:28:54.677Z,562
2023-05-07T07:29:55.287Z,573
2023-05-07T07:30:55.903Z,573
2023-05-07T07:31:56.567Z,590
2023-05-07T07:32:57.257Z,613
2023-05-07T07:33:57.900Z,630
2023-05-07T07:34:58.569Z,658
2023-05-07T07:35:59.129Z,680
2023-05-07T07:36:59.720Z,686
2023-05-07T07:38:00.324Z,720
2023-05-07T07:39:00.960Z,753
2023-05-07T07:40:01.560Z,804
2023-05-07T07:41:02.164Z,860
2023-05-07T07:42:02.776Z,922
2023-05-07T07:43:03.401Z,990
2023-05-07T07:44:03.994Z,1018
2023-05-07T07:45:04.599Z,1102
2023-05-07T07:46:05.204Z,1170
2023-05-07T07:47:05.896Z,1192
2023-05-07T07:48:06.565Z,1198
2023-05-07T07:49:07.143Z,1158
2023-05-07T07:50:07.792Z,1113
2023-05-07T07:51:08.370Z,1108
2023-05-07T07:52:08.977Z,1164
2023-05-07T07:53:09.596Z,1175
2023-05-07T07:54:10.188Z,1141
2023-05-07T07:55:10.805Z,1085
2023-05-07T07:56:11.387Z,1012
2023-05-07T07:57:11.999Z,1023
2023-05-07T07:58:12.615Z,978
2023-05-07T07:59:13.216Z,871
2023-05-07T08:00:13.852Z,916
2023-05-07T08:01:14.450Z,922
2023-05-07T08:02:15.076Z,933
2023-05-07T08:03:15.736Z,939
2023-05-07T08:04:16.297Z,973
2023-05-07T08:05:16.869Z,990
2023-05-07T08:06:17.469Z,1023
2023-05-07T08:07:18.073Z,1018
2023-05-07T08:08:18.678Z,1006
2023-05-07T08:09:19.304Z,1012
2023-05-07T08:10:19.903Z,1046
2023-05-07T08:11:20.509Z,1046
2023-05-07T08:12:21.131Z,1085
2023-05-07T08:13:21.826Z,1141
2023-05-07T08:14:22.355Z,1147
2023-05-07T08:15:22.963Z,1192
2023-05-07T08:16:24.166Z,1203
2023-05-07T08:17:24.984Z,1305
2023-05-07T08:18:25.584Z,1355
2023-05-07T08:19:26.201Z,1361
2023-05-07T08:20:26.850Z,1333
2023-05-07T08:21:27.427Z,1338
2023-05-07T08:22:28.046Z,1327
2023-05-07T08:23:28.653Z,1327
2023-05-07T08:24:29.258Z,1344
2023-05-07T08:25:29.866Z,1361
2023-05-07T08:26:30.485Z,1400
2023-05-07T08:27:31.088Z,1411
2023-05-07T08:28:31.694Z,1400
2023-05-07T08:29:32.312Z,1428
2023-05-07T08:30:32.927Z,1434
2023-05-07T08:31:33.536Z,1434
2023-05-07T08:32:34.236Z,1383
2023-05-07T08:33:34.744Z,1344
2023-05-07T08:34:35.354Z,1372
2023-05-07T08:35:35.997Z,1350
2023-05-07T08:36:36.574Z,1372
2023-05-07T08:37:37.192Z,1372
2023-05-07T08:38:37.791Z,1395
2023-05-07T08:39:38.415Z,1434
2023-05-07T08:40:39.010Z,1501
2023-05-07T08:41:39.613Z,1530
2023-05-07T08:42:40.220Z,1473
2023-05-07T08:43:40.822Z,1468
2023-05-07T08:44:41.422Z,1496
2023-05-07T08:45:42.042Z,1440
2023-05-07T08:46:42.672Z,1338
2023-05-07T08:47:43.362Z,1344
2023-05-07T08:48:43.914Z,1333
2023-05-07T08:49:44.538Z,1282
2023-05-07T08:50:45.142Z,1243
2023-05-07T08:51:45.753Z,1237
2023-05-07T08:52:46.377Z,1243
2023-05-07T08:53:46.975Z,1276
2023-05-07T08:54:47.583Z,1316
2023-05-07T08:55:48.212Z,1400
2023-05-07T08:56:48.807Z,1479
2023-05-07T08:57:49.413Z,1541
2023-05-07T08:58:50.018Z,1569
2023-05-07T08:59:50.618Z,1569
2023-05-07T09:00:51.233Z,1563
2023-05-07T09:01:51.841Z,1546
2023-05-07T09:02:52.474Z,1490
2023-05-07T09:03:53.103Z,1485
2023-05-07T09:04:53.678Z,1530
2023-05-07T09:05:54.342Z,1552
2023-05-07T09:06:54.924Z,1591
2023-05-07T09:07:58.325Z,1648
2023-05-07T09:08:57.141Z,1732
2023-05-07T09:09:57.747Z,1698
2023-05-07T09:10:58.383Z,1743
2023-05-07T09:11:58.976Z,1704
2023-05-07T09:12:59.619Z,1659
2023-05-07T09:14:00.184Z,1648
2023-05-07T09:15:00.791Z,1676
2023-05-07T09:16:01.457Z,1805
2023-05-07T09:17:02.038Z,1867
2023-05-07T09:18:02.720Z,1878
2023-05-07T09:19:03.318Z,1940
2023-05-07T09:20:03.930Z,1850
2023-05-07T09:21:04.528Z,1940
2023-05-07T09:22:05.132Z,1963
2023-05-07T09:23:05.765Z,2002
2023-05-07T09:24:06.358Z,2041
2023-05-07T09:25:06.958Z,1991
2023-05-07T09:26:09.218Z,1951
2023-05-07T09:27:09.162Z,1867
2023-05-07T09:28:09.782Z,1946
2023-05-07T09:29:10.389Z,1929
2023-05-07T09:30:11.028Z,1935
2023-05-07T09:31:11.653Z,2002
2023-05-07T09:32:12.264Z,2070
2023-05-07T09:33:12.838Z,2103
2023-05-07T09:34:13.442Z,2086
2023-05-07T09:35:14.073Z,2086
2023-05-07T09:36:14.779Z,2109
2023-05-07T09:37:15.300Z,2081
2023-05-07T09:38:15.897Z,1957
2023-05-07T09:39:16.508Z,2025
2023-05-07T09:40:17.110Z,2216
2023-05-07T09:41:17.752Z,2283
2023-05-07T09:42:18.367Z,2306
2023-05-07T09:43:18.959Z,2227
2023-05-07T09:44:19.589Z,2036
2023-05-07T09:45:20.216Z,2086
2023-05-07T09:46:20.842Z,2379
2023-05-07T09:47:21.465Z,2390
2023-05-07T09:48:22.034Z,2407
2023-05-07T09:49:22.661Z,2458
2023-05-07T09:50:23.278Z,2604
2023-05-07T09:51:23.861Z,2700
2023-05-07T09:52:24.502Z,2756
2023-05-07T09:53:25.090Z,2851
2023-05-07T09:54:25.700Z,2880
2023-05-07T09:55:26.300Z,2930
2023-05-07T09:56:26.895Z,2953
2023-05-07T09:57:27.503Z,2958
2023-05-07T09:58:28.127Z,2970
2023-05-07T09:59:30.220Z,3031
2023-05-07T10:00:30.327Z,2925
2023-05-07T10:01:30.991Z,2840
2023-05-07T10:02:31.768Z,3088
2023-05-07T10:03:32.320Z,3121
2023-05-07T10:04:32.863Z,3093
2023-05-07T10:05:33.464Z,3172
2023-05-07T10:06:34.133Z,3172
2023-05-07T10:07:34.686Z,3217
2023-05-07T10:08:35.300Z,3183
2023-05-07T10:09:35.922Z,3195
2023-05-07T10:10:36.513Z,3195
2023-05-07T10:11:37.112Z,3223
2023-05-07T10:12:37.738Z,3245
2023-05-07T10:13:38.330Z,2998
2023-05-07T10:14:38.937Z,2683
2023-05-07T10:15:39.545Z,2452
2023-05-07T10:16:40.163Z,2503
2023-05-07T10:17:40.885Z,2356
2023-05-07T10:18:41.532Z,2621
2023-05-07T10:19:42.130Z,2784
2023-05-07T10:20:42.720Z,2368
2023-05-07T10:21:43.367Z,2868
2023-05-07T10:22:43.969Z,3273
2023-05-07T10:23:44.564Z,3150
2023-05-07T10:24:45.166Z,2992
2023-05-07T10:25:45.772Z,2874
2023-05-07T10:26:46.374Z,2705
2023-05-07T10:27:47.003Z,2880
2023-05-07T10:28:47.621Z,3088
2023-05-07T10:29:48.222Z,3031
2023-05-07T10:30:48.853Z,2947
2023-05-07T10:31:49.435Z,3020
2023-05-07T10:32:50.068Z,2851
2023-05-07T10:33:50.666Z,2638
2023-05-07T10:34:51.267Z,2660
2023-05-07T10:35:51.876Z,2671
2023-05-07T10:36:52.535Z,2705
2023-05-07T10:37:53.093Z,2671
2023-05-07T10:38:53.692Z,2666
2023-05-07T10:39:54.299Z,2570
2023-05-07T10:40:54.905Z,2508
2023-05-07T10:41:55.497Z,2536
2023-05-07T10:42:56.099Z,2390
2023-05-07T10:43:56.704Z,2345
2023-05-07T10:44:57.331Z,2199
2023-05-07T10:45:57.947Z,2081
2023-05-07T10:46:58.527Z,1957
2023-05-07T10:47:59.143Z,1996
2023-05-07T10:48:59.741Z,2030
2023-05-07T10:50:00.478Z,2002
2023-05-07T10:51:01.122Z,2120
2023-05-07T10:52:01.768Z,2160
2023-05-07T10:53:02.349Z,2126
2023-05-07T10:54:02.969Z,2143
2023-05-07T10:55:03.569Z,2176
2023-05-07T10:56:04.191Z,2205
2023-05-07T10:57:04.793Z,2261
2023-05-07T10:58:05.399Z,2272
2023-05-07T10:59:05.998Z,2295
2023-05-07T11:00:06.604Z,2278
2023-05-07T11:01:07.201Z,2345
2023-05-07T11:02:07.876Z,2396
2023-05-07T11:03:08.992Z,2255
2023-05-07T11:04:10.030Z,2323
2023-05-07T11:05:10.815Z,2289
2023-05-07T11:06:11.564Z,2300
2023-05-07T11:07:12.213Z,2300
2023-05-07T11:08:12.783Z,2300
2023-05-07T11:09:13.392Z,2385
2023-05-07T11:10:13.993Z,2458
2023-05-07T11:11:14.594Z,2536
2023-05-07T11:12:15.196Z,2598
2023-05-07T11:13:15.862Z,2638
2023-05-07T11:14:16.425Z,2610
2023-05-07T11:15:17.185Z,2604
2023-05-07T11:16:17.786Z,2677
2023-05-07T11:17:18.546Z,2700
2023-05-07T11:18:19.107Z,2711
2023-05-07T11:19:19.709Z,2823
2023-05-07T11:20:20.315Z,2947
2023-05-07T11:21:20.915Z,2745
2023-05-07T11:22:21.516Z,2660
2023-05-07T11:23:22.113Z,2683
2023-05-07T11:24:22.717Z,2621
2023-05-07T11:25:23.318Z,2553
2023-05-07T11:26:23.922Z,2598
2023-05-07T11:27:24.546Z,2441
2023-05-07T11:28:25.126Z,2486
2023-05-07T11:29:25.750Z,2604
2023-05-07T11:30:26.358Z,2688
2023-05-07T11:31:27.019Z,2587
2023-05-07T11:32:30.741Z,2430
2023-05-07T11:33:29.237Z,2666
2023-05-07T11:34:29.800Z,2953
2023-05-07T11:35:30.405Z,3071
2023-05-07T11:36:31.003Z,2975
2023-05-07T11:37:31.609Z,2953
2023-05-07T11:38:32.204Z,2930
2023-05-07T11:39:32.810Z,2964
2023-05-07T11:40:33.409Z,2941
2023-05-07T11:41:34.011Z,3290
2023-05-07T11:42:34.626Z,3493
2023-05-07T11:43:35.237Z,3442
2023-05-07T11:44:35.840Z,3498
2023-05-07T11:45:36.469Z,3031
2023-05-07T11:46:37.053Z,2913
2023-05-07T11:47:37.710Z,3048
2023-05-07T11:48:38.297Z,2868
2023-05-07T11:49:38.895Z,2868
2023-05-07T11:50:39.498Z,2778
2023-05-07T11:51:40.117Z,2739
2023-05-07T11:52:40.743Z,2750
2023-05-07T11:53:41.323Z,2767
2023-05-07T11:54:41.932Z,2846
2023-05-07T11:55:42.528Z,3031
2023-05-07T11:56:43.129Z,2896
2023-05-07T11:57:43.736Z,2795
2023-05-07T11:58:44.336Z,2767
2023-05-07T11:59:44.935Z,2739
2023-05-07T12:00:45.541Z,2452
2023-05-07T12:01:46.199Z,2390
2023-05-07T12:02:46.822Z,2407
2023-05-07T12:03:47.691Z,2598
2023-05-07T12:04:48.175Z,2851
2023-05-07T12:05:48.817Z,2919
2023-05-07T12:06:49.440Z,3088
2023-05-07T12:07:50.037Z,3639
2023-05-07T12:08:50.641Z,3993
2023-05-07T12:09:51.273Z,4702
2023-05-07T12:10:51.866Z,3791
2023-05-07T12:11:52.480Z,3577
2023-05-07T12:12:53.130Z,2851
2023-05-07T12:13:53.692Z,3352
2023-05-07T12:14:54.295Z,4027
2023-05-07T12:15:54.896Z,4010
2023-05-07T12:16:55.567Z,4100
2023-05-07T12:17:56.192Z,3628
2023-05-07T12:18:56.755Z,2430
2023-05-07T12:19:57.353Z,3290
2023-05-07T12:20:57.956Z,2666
2023-05-07T12:21:58.556Z,2598
2023-05-07T12:22:59.196Z,2666
2023-05-07T12:23:59.781Z,2570
2023-05-07T12:25:00.618Z,2250
2023-05-07T12:26:01.029Z,2328
2023-05-07T12:27:01.640Z,2334
2023-05-07T12:28:02.240Z,2761
2023-05-07T12:29:02.843Z,2070
2023-05-07T12:30:03.442Z,2328
2023-05-07T12:31:04.079Z,2396
2023-05-07T12:32:07.034Z,2025
2023-05-07T12:33:06.278Z,2688
2023-05-07T12:34:06.871Z,2570
2023-05-07T12:35:07.499Z,3054
2023-05-07T12:36:08.090Z,3268
2023-05-07T12:37:08.687Z,2964
2023-05-07T12:38:09.296Z,2621
2023-05-07T12:39:09.894Z,3206
2023-05-07T12:40:10.494Z,3037
2023-05-07T12:41:11.164Z,2925
2023-05-07T12:42:11.735Z,2323
2023-05-07T12:43:12.323Z,3082
2023-05-07T12:44:12.930Z,3386
2023-05-07T12:45:14.155Z,3363
2023-05-07T12:46:14.172Z,2604
2023-05-07T12:47:14.753Z,2227
2023-05-07T12:48:15.375Z,2542
2023-05-07T12:49:15.982Z,2739
2023-05-07T12:50:16.650Z,2407
2023-05-07T12:51:17.240Z,2458
2023-05-07T12:52:17.824Z,2188
2023-05-07T12:53:18.428Z,2205
2023-05-07T12:54:19.042Z,2356
2023-05-07T12:55:19.643Z,2368
2023-05-07T12:56:20.244Z,2452
2023-05-07T12:57:20.849Z,2559
2023-05-07T12:58:21.449Z,2570
2023-05-07T12:59:22.072Z,2452
2023-05-07T13:00:22.671Z,2643
2023-05-07T13:01:23.326Z,2424
2023-05-07T13:02:23.953Z,2452
2023-05-07T13:03:24.629Z,2368
2023-05-07T13:04:25.249Z,2857
2023-05-07T13:05:25.852Z,2497
2023-05-07T13:06:26.457Z,2266
2023-05-07T13:07:28.230Z,2311
2023-05-07T13:08:28.669Z,2356
2023-05-07T13:09:29.278Z,2289
2023-05-07T13:10:29.892Z,2407
2023-05-07T13:11:30.540Z,2401
2023-05-07T13:12:31.127Z,2407
2023-05-07T13:13:32.821Z,2340
2023-05-07T13:14:33.321Z,2418
2023-05-07T13:15:33.918Z,2351
2023-05-07T13:16:34.564Z,2266
2023-05-07T13:17:35.201Z,2244
2023-05-07T13:18:35.916Z,2216
2023-05-07T13:19:36.547Z,2379
2023-05-07T13:20:37.148Z,2233
2023-05-07T13:21:37.754Z,2503
2023-05-07T13:22:38.375Z,2413
2023-05-07T13:23:38.978Z,2435
2023-05-07T13:24:39.599Z,2351
2023-05-07T13:25:40.208Z,2520
2023-05-07T13:26:40.805Z,2351
2023-05-07T13:27:41.431Z,2334
2023-05-07T13:28:42.044Z,2295
2023-05-07T13:29:42.649Z,2261
2023-05-07T13:30:43.274Z,2238
2023-05-07T13:31:43.999Z,2216
2023-05-07T13:32:44.611Z,2205
2023-05-07T13:33:45.194Z,2188
2023-05-07T13:34:45.818Z,2250
2023-05-07T13:35:46.425Z,2536
2023-05-07T13:36:47.027Z,2311
2023-05-07T13:37:47.627Z,2373
2023-05-07T13:38:48.244Z,2418
2023-05-07T13:39:48.842Z,2418
2023-05-07T13:40:49.444Z,2666
2023-05-07T13:41:50.079Z,2475
2023-05-07T13:42:50.660Z,2626
2023-05-07T13:43:51.283Z,3206
2023-05-07T13:44:51.869Z,2610
2023-05-07T13:45:52.491Z,2570
2023-05-07T13:46:53.105Z,2930
2023-05-07T13:47:53.753Z,2790
2023-05-07T13:48:54.351Z,3065
2023-05-07T13:49:54.956Z,2610
2023-05-07T13:50:55.551Z,2643
2023-05-07T13:51:56.170Z,2413
2023-05-07T13:52:56.774Z,2666
2023-05-07T13:53:57.399Z,2610
2023-05-07T13:54:58.001Z,2503
2023-05-07T13:55:58.609Z,2565
2023-05-07T13:56:59.205Z,2761
2023-05-07T13:57:59.825Z,2818
2023-05-07T13:59:01.041Z,2986